sensor_id;sensor_type;location;lat;lon;timestamp;temperature;humidity
25914;DHT22;13718;50.922;5.346;2022-11-18T00:02:01;10.80;99.90
25914;DHT22;13718;50.922;5.346;2022-11-18T00:04:26;10.80;99.90
25914;DHT22;13718;50.922;5.346;2022-11-18T00:06:52;10.70;99.90
25914;DHT22;13718;50.922;5.346;2022-11-18T00:09:18;10.80;99.90
25914;DHT22;13718;50.922;5.346;2022-11-18T00:11:43;10.70;99.90
25914;DHT22;13718;50.922;5.346;2022-11-18T00:14:27;10.70;99.90
25914;DHT22;13718;50.922;5.346;2022-11-18T00:16:55;10.60;99.90
25914;DHT22;13718;50.922;5.346;2022-11-18T00:19:24;10.60;99.90
25914;DHT22;13718;50.922;5.346;2022-11-18T00:21:50;10.60;99.90
25914;DHT22;13718;50.922;5.346;2022-11-18T00:24:16;10.60;99.90
25914;DHT22;13718;50.922;5.346;2022-11-18T00:26:42;10.60;99.90
25914;DHT22;13718;50.922;5.346;2022-11-18T00:29:09;10.60;99.90
25914;DHT22;13718;50.922;5.346;2022-11-18T00:31:35;10.60;99.90
25914;DHT22;13718;50.922;5.346;2022-11-18T00:34:01;10.60;99.90
25914;DHT22;13718;50.922;5.346;2022-11-18T00:36:27;10.60;99.90
25914;DHT22;13718;50.922;5.346;2022-11-18T00:38:53;10.60;99.90
25914;DHT22;13718;50.922;5.346;2022-11-18T00:41:19;10.60;99.90
25914;DHT22;13718;50.922;5.346;2022-11-18T00:43:45;10.60;99.90
25914;DHT22;13718;50.922;5.346;2022-11-18T00:46:11;10.60;99.90
25914;DHT22;13718;50.922;5.346;2022-11-18T00:48:37;10.50;99.90
25914;DHT22;13718;50.922;5.346;2022-11-18T00:51:13;10.60;99.90
25914;DHT22;13718;50.922;5.346;2022-11-18T00:53:40;10.60;99.90
25914;DHT22;13718;50.922;5.346;2022-11-18T00:56:06;10.50;99.90
25914;DHT22;13718;50.922;5.346;2022-11-18T00:58:32;10.40;99.90
25914;DHT22;13718;50.922;5.346;2022-11-18T01:00:59;10.50;99.90
25914;DHT22;13718;50.922;5.346;2022-11-18T01:03:24;10.50;99.90
25914;DHT22;13718;50.922;5.346;2022-11-18T01:05:51;10.40;99.90
25914;DHT22;13718;50.922;5.346;2022-11-18T01:08:16;10.40;99.90
25914;DHT22;13718;50.922;5.346;2022-11-18T01:10:44;10.50;99.90
25914;DHT22;13718;50.922;5.346;2022-11-18T01:13:13;10.50;99.90
25914;DHT22;13718;50.922;5.346;2022-11-18T01:15:53;10.40;99.90
25914;DHT22;13718;50.922;5.346;2022-11-18T01:18:25;10.40;99.90
25914;DHT22;13718;50.922;5.346;2022-11-18T01:20:51;10.30;99.90
25914;DHT22;13718;50.922;5.346;2022-11-18T01:23:18;10.20;99.90
25914;DHT22;13718;50.922;5.346;2022-11-18T01:25:46;10.20;99.90
25914;DHT22;13718;50.922;5.346;2022-11-18T01:28:12;10.10;99.90
25914;DHT22;13718;50.922;5.346;2022-11-18T01:30:40;10.30;99.90
25914;DHT22;13718;50.922;5.346;2022-11-18T01:33:06;10.10;99.90
25914;DHT22;13718;50.922;5.346;2022-11-18T01:35:36;10.20;99.90
25914;DHT22;13718;50.922;5.346;2022-11-18T01:38:02;10.20;99.90
25914;DHT22;13718;50.922;5.346;2022-11-18T01:40:28;10.10;99.90
25914;DHT22;13718;50.922;5.346;2022-11-18T01:42:54;10.10;99.90
25914;DHT22;13718;50.922;5.346;2022-11-18T01:45:34;10.10;99.90
25914;DHT22;13718;50.922;5.346;2022-11-18T01:48:15;10.10;99.90
25914;DHT22;13718;50.922;5.346;2022-11-18T01:50:49;10.20;99.90
25914;DHT22;13718;50.922;5.346;2022-11-18T01:53:21;10.20;99.90
25914;DHT22;13718;50.922;5.346;2022-11-18T01:55:49;10.40;99.90
25914;DHT22;13718;50.922;5.346;2022-11-18T01:58:50;10.50;99.90
25914;DHT22;13718;50.922;5.346;2022-11-18T02:01:17;10.70;99.90
25914;DHT22;13718;50.922;5.346;2022-11-18T02:03:44;10.70;99.90
25914;DHT22;13718;50.922;5.346;2022-11-18T02:06:10;10.60;99.90
25914;DHT22;13718;50.922;5.346;2022-11-18T02:08:37;10.80;99.90
25914;DHT22;13718;50.922;5.346;2022-11-18T02:11:04;10.80;99.90
25914;DHT22;13718;50.922;5.346;2022-11-18T02:13:33;11.00;99.90
25914;DHT22;13718;50.922;5.346;2022-11-18T02:16:07;10.90;99.90
25914;DHT22;13718;50.922;5.346;2022-11-18T02:24:39;10.90;99.90
25914;DHT22;13718;50.922;5.346;2022-11-18T02:32:08;10.90;99.90
25914;DHT22;13718;50.922;5.346;2022-11-18T02:40:02;10.80;99.90
25914;DHT22;13718;50.922;5.346;2022-11-18T02:42:32;10.80;99.90
25914;DHT22;13718;50.922;5.346;2022-11-18T02:45:03;11.10;99.90
25914;DHT22;13718;50.922;5.346;2022-11-18T02:47:31;11.10;99.90
25914;DHT22;13718;50.922;5.346;2022-11-18T02:50:02;11.00;99.90
25914;DHT22;13718;50.922;5.346;2022-11-18T02:52:30;10.80;99.90
25914;DHT22;13718;50.922;5.346;2022-11-18T02:54:57;11.00;99.90
25914;DHT22;13718;50.922;5.346;2022-11-18T02:57:25;11.00;99.90
25914;DHT22;13718;50.922;5.346;2022-11-18T02:59:53;10.80;99.90
25914;DHT22;13718;50.922;5.346;2022-11-18T03:02:19;10.80;99.90
25914;DHT22;13718;50.922;5.346;2022-11-18T03:04:46;10.90;99.90
25914;DHT22;13718;50.922;5.346;2022-11-18T03:07:46;10.70;99.90
25914;DHT22;13718;50.922;5.346;2022-11-18T03:10:13;10.70;99.90
25914;DHT22;13718;50.922;5.346;2022-11-18T03:13:17;10.70;99.90
25914;DHT22;13718;50.922;5.346;2022-11-18T03:15:54;10.70;99.90
25914;DHT22;13718;50.922;5.346;2022-11-18T03:18:51;10.70;99.90
25914;DHT22;13718;50.922;5.346;2022-11-18T03:26:38;10.50;99.90
25914;DHT22;13718;50.922;5.346;2022-11-18T03:29:14;10.60;99.90
25914;DHT22;13718;50.922;5.346;2022-11-18T03:31:45;10.50;99.90
25914;DHT22;13718;50.922;5.346;2022-11-18T03:34:21;10.70;99.90
25914;DHT22;13718;50.922;5.346;2022-11-18T03:36:55;10.70;99.90
25914;DHT22;13718;50.922;5.346;2022-11-18T03:39:22;10.70;99.90
25914;DHT22;13718;50.922;5.346;2022-11-18T03:48:39;10.80;99.90
25914;DHT22;13718;50.922;5.346;2022-11-18T03:51:08;10.60;99.90
25914;DHT22;13718;50.922;5.346;2022-11-18T03:53:39;10.50;99.90
25914;DHT22;13718;50.922;5.346;2022-11-18T03:56:16;10.50;99.90
25914;DHT22;13718;50.922;5.346;2022-11-18T03:59:08;10.40;99.90
25914;DHT22;13718;50.922;5.346;2022-11-18T04:01:43;10.40;99.90
25914;DHT22;13718;50.922;5.346;2022-11-18T04:04:10;10.30;99.90
25914;DHT22;13718;50.922;5.346;2022-11-18T04:06:56;10.30;99.90
25914;DHT22;13718;50.922;5.346;2022-11-18T04:09:29;10.30;99.90
25914;DHT22;13718;50.922;5.346;2022-11-18T04:12:02;10.10;99.90
25914;DHT22;13718;50.922;5.346;2022-11-18T04:14:35;10.00;99.90
25914;DHT22;13718;50.922;5.346;2022-11-18T04:17:14;9.90;99.90
25914;DHT22;13718;50.922;5.346;2022-11-18T04:19:40;9.90;99.90
25914;DHT22;13718;50.922;5.346;2022-11-18T04:22:06;9.90;99.90
25914;DHT22;13718;50.922;5.346;2022-11-18T04:24:32;9.90;99.90
25914;DHT22;13718;50.922;5.346;2022-11-18T04:26:59;9.90;99.90
25914;DHT22;13718;50.922;5.346;2022-11-18T04:29:24;9.80;99.90
25914;DHT22;13718;50.922;5.346;2022-11-18T04:31:50;9.70;99.90
25914;DHT22;13718;50.922;5.346;2022-11-18T04:34:16;9.60;99.90
25914;DHT22;13718;50.922;5.346;2022-11-18T04:36:41;9.60;99.90
25914;DHT22;13718;50.922;5.346;2022-11-18T04:39:07;9.50;99.90
25914;DHT22;13718;50.922;5.346;2022-11-18T04:41:32;9.60;99.90
25914;DHT22;13718;50.922;5.346;2022-11-18T04:44:17;9.50;99.90
25914;DHT22;13718;50.922;5.346;2022-11-18T04:46:43;9.40;99.90
25914;DHT22;13718;50.922;5.346;2022-11-18T04:49:11;9.30;99.90
25914;DHT22;13718;50.922;5.346;2022-11-18T04:51:37;9.30;99.90
25914;DHT22;13718;50.922;5.346;2022-11-18T04:54:03;9.40;99.90
25914;DHT22;13718;50.922;5.346;2022-11-18T04:56:29;9.30;99.90
25914;DHT22;13718;50.922;5.346;2022-11-18T04:58:55;9.10;99.90
25914;DHT22;13718;50.922;5.346;2022-11-18T05:01:20;9.10;99.90
25914;DHT22;13718;50.922;5.346;2022-11-18T05:03:46;9.10;99.90
25914;DHT22;13718;50.922;5.346;2022-11-18T05:06:11;9.10;99.90
25914;DHT22;13718;50.922;5.346;2022-11-18T05:08:38;9.20;99.90
25914;DHT22;13718;50.922;5.346;2022-11-18T05:11:07;9.20;99.90
25914;DHT22;13718;50.922;5.346;2022-11-18T05:13:51;9.20;99.90
25914;DHT22;13718;50.922;5.346;2022-11-18T05:16:17;9.10;99.90
25914;DHT22;13718;50.922;5.346;2022-11-18T05:18:43;9.00;99.90
25914;DHT22;13718;50.922;5.346;2022-11-18T05:21:09;8.90;99.90
25914;DHT22;13718;50.922;5.346;2022-11-18T05:23:34;8.90;99.90
25914;DHT22;13718;50.922;5.346;2022-11-18T05:26:08;8.90;99.90
25914;DHT22;13718;50.922;5.346;2022-11-18T05:28:34;8.90;99.90
25914;DHT22;13718;50.922;5.346;2022-11-18T05:31:09;8.90;99.90
25914;DHT22;13718;50.922;5.346;2022-11-18T05:33:35;8.90;99.90
25914;DHT22;13718;50.922;5.346;2022-11-18T05:36:05;9.00;99.90
25914;DHT22;13718;50.922;5.346;2022-11-18T05:38:31;8.90;99.90
25914;DHT22;13718;50.922;5.346;2022-11-18T05:40:57;8.90;99.90
25914;DHT22;13718;50.922;5.346;2022-11-18T05:43:23;9.00;99.90
25914;DHT22;13718;50.922;5.346;2022-11-18T05:45:50;9.00;99.90
25914;DHT22;13718;50.922;5.346;2022-11-18T05:48:17;9.10;99.90
25914;DHT22;13718;50.922;5.346;2022-11-18T05:50:48;9.10;99.90
25914;DHT22;13718;50.922;5.346;2022-11-18T05:53:14;9.20;99.90
25914;DHT22;13718;50.922;5.346;2022-11-18T05:56:05;9.20;99.90
25914;DHT22;13718;50.922;5.346;2022-11-18T05:58:31;9.10;99.90
25914;DHT22;13718;50.922;5.346;2022-11-18T06:01:02;9.00;99.90
25914;DHT22;13718;50.922;5.346;2022-11-18T06:03:29;8.80;99.90
25914;DHT22;13718;50.922;5.346;2022-11-18T06:05:58;8.80;99.90
25914;DHT22;13718;50.922;5.346;2022-11-18T06:08:28;8.90;99.90
25914;DHT22;13718;50.922;5.346;2022-11-18T06:10:54;8.90;99.90
25914;DHT22;13718;50.922;5.346;2022-11-18T06:13:29;8.90;99.90
25914;DHT22;13718;50.922;5.346;2022-11-18T06:15:55;8.80;99.90
25914;DHT22;13718;50.922;5.346;2022-11-18T06:18:27;8.80;99.90
25914;DHT22;13718;50.922;5.346;2022-11-18T06:21:03;8.80;99.90
25914;DHT22;13718;50.922;5.346;2022-11-18T06:23:34;8.80;99.90
25914;DHT22;13718;50.922;5.346;2022-11-18T06:26:00;8.70;99.90
25914;DHT22;13718;50.922;5.346;2022-11-18T06:28:26;8.70;99.90
25914;DHT22;13718;50.922;5.346;2022-11-18T06:30:53;8.80;99.90
25914;DHT22;13718;50.922;5.346;2022-11-18T06:33:18;8.70;99.90
25914;DHT22;13718;50.922;5.346;2022-11-18T06:35:44;8.70;99.90
25914;DHT22;13718;50.922;5.346;2022-11-18T06:38:10;8.70;99.90
25914;DHT22;13718;50.922;5.346;2022-11-18T06:40:35;8.80;99.90
25914;DHT22;13718;50.922;5.346;2022-11-18T06:43:09;8.80;99.90
25914;DHT22;13718;50.922;5.346;2022-11-18T06:46:00;8.80;99.90
25914;DHT22;13718;50.922;5.346;2022-11-18T06:48:44;8.80;99.90
25914;DHT22;13718;50.922;5.346;2022-11-18T06:51:10;8.90;99.90
25914;DHT22;13718;50.922;5.346;2022-11-18T06:53:36;8.90;99.90
25914;DHT22;13718;50.922;5.346;2022-11-18T06:56:06;8.90;99.90
25914;DHT22;13718;50.922;5.346;2022-11-18T06:58:32;8.90;99.90
25914;DHT22;13718;50.922;5.346;2022-11-18T07:01:11;8.90;99.90
25914;DHT22;13718;50.922;5.346;2022-11-18T07:03:37;8.80;99.90
25914;DHT22;13718;50.922;5.346;2022-11-18T07:06:03;8.80;99.90
25914;DHT22;13718;50.922;5.346;2022-11-18T07:08:29;8.70;99.90
25914;DHT22;13718;50.922;5.346;2022-11-18T07:10:54;8.80;99.90
25914;DHT22;13718;50.922;5.346;2022-11-18T07:13:20;8.80;99.90
25914;DHT22;13718;50.922;5.346;2022-11-18T07:15:45;8.80;99.90
25914;DHT22;13718;50.922;5.346;2022-11-18T07:18:11;8.80;99.90
25914;DHT22;13718;50.922;5.346;2022-11-18T07:20:37;8.90;99.90
25914;DHT22;13718;50.922;5.346;2022-11-18T07:23:02;8.90;99.90
25914;DHT22;13718;50.922;5.346;2022-11-18T07:25:28;8.80;99.90
25914;DHT22;13718;50.922;5.346;2022-11-18T07:27:53;8.90;99.90
25914;DHT22;13718;50.922;5.346;2022-11-18T07:30:19;8.90;99.90
25914;DHT22;13718;50.922;5.346;2022-11-18T07:32:46;8.90;99.90
25914;DHT22;13718;50.922;5.346;2022-11-18T07:35:11;9.00;99.90
25914;DHT22;13718;50.922;5.346;2022-11-18T07:37:37;9.00;99.90
25914;DHT22;13718;50.922;5.346;2022-11-18T07:40:03;9.40;99.90
25914;DHT22;13718;50.922;5.346;2022-11-18T07:42:29;9.70;99.90
25914;DHT22;13718;50.922;5.346;2022-11-18T07:45:08;10.30;99.90
25914;DHT22;13718;50.922;5.346;2022-11-18T07:47:34;10.50;99.90
25914;DHT22;13718;50.922;5.346;2022-11-18T07:49:59;10.50;99.90
25914;DHT22;13718;50.922;5.346;2022-11-18T07:52:25;10.30;99.90
25914;DHT22;13718;50.922;5.346;2022-11-18T07:54:50;10.10;99.90
25914;DHT22;13718;50.922;5.346;2022-11-18T07:57:16;10.00;99.90
25914;DHT22;13718;50.922;5.346;2022-11-18T07:59:41;9.90;99.90
25914;DHT22;13718;50.922;5.346;2022-11-18T08:02:10;9.80;99.90
25914;DHT22;13718;50.922;5.346;2022-11-18T08:04:36;9.70;99.90
25914;DHT22;13718;50.922;5.346;2022-11-18T08:07:02;9.60;99.90
25914;DHT22;13718;50.922;5.346;2022-11-18T08:09:27;9.70;99.90
25914;DHT22;13718;50.922;5.346;2022-11-18T08:11:53;9.70;99.90
25914;DHT22;13718;50.922;5.346;2022-11-18T08:14:19;9.70;99.90
25914;DHT22;13718;50.922;5.346;2022-11-18T08:16:46;9.70;99.90
25914;DHT22;13718;50.922;5.346;2022-11-18T08:19:11;9.70;99.90
25914;DHT22;13718;50.922;5.346;2022-11-18T08:21:37;9.90;99.90
25914;DHT22;13718;50.922;5.346;2022-11-18T08:24:03;9.90;99.90
25914;DHT22;13718;50.922;5.346;2022-11-18T08:26:28;10.00;99.90
25914;DHT22;13718;50.922;5.346;2022-11-18T08:28:54;9.90;99.90
25914;DHT22;13718;50.922;5.346;2022-11-18T08:31:22;10.00;99.90
25914;DHT22;13718;50.922;5.346;2022-11-18T08:33:59;10.10;99.90
25914;DHT22;13718;50.922;5.346;2022-11-18T08:36:27;10.10;99.90
25914;DHT22;13718;50.922;5.346;2022-11-18T08:38:57;10.10;99.90
25914;DHT22;13718;50.922;5.346;2022-11-18T08:41:28;10.20;99.90
25914;DHT22;13718;50.922;5.346;2022-11-18T08:43:55;10.30;99.90
25914;DHT22;13718;50.922;5.346;2022-11-18T08:46:20;10.40;99.90
25914;DHT22;13718;50.922;5.346;2022-11-18T08:48:47;10.50;99.90
25914;DHT22;13718;50.922;5.346;2022-11-18T08:51:13;10.50;99.90
25914;DHT22;13718;50.922;5.346;2022-11-18T08:53:40;10.50;99.90
25914;DHT22;13718;50.922;5.346;2022-11-18T08:56:06;10.60;99.90
25914;DHT22;13718;50.922;5.346;2022-11-18T08:58:32;10.60;99.90
25914;DHT22;13718;50.922;5.346;2022-11-18T09:01:03;10.80;99.90
25914;DHT22;13718;50.922;5.346;2022-11-18T09:03:29;10.80;99.90
25914;DHT22;13718;50.922;5.346;2022-11-18T09:06:07;10.80;99.90
25914;DHT22;13718;50.922;5.346;2022-11-18T09:08:33;11.00;99.90
25914;DHT22;13718;50.922;5.346;2022-11-18T09:11:07;11.10;99.90
25914;DHT22;13718;50.922;5.346;2022-11-18T09:13:32;11.10;99.90
25914;DHT22;13718;50.922;5.346;2022-11-18T09:15:58;11.10;99.90
25914;DHT22;13718;50.922;5.346;2022-11-18T09:18:24;11.20;99.90
25914;DHT22;13718;50.922;5.346;2022-11-18T09:20:54;11.20;99.90
25914;DHT22;13718;50.922;5.346;2022-11-18T09:23:20;11.30;99.90
25914;DHT22;13718;50.922;5.346;2022-11-18T09:25:46;11.40;99.90
25914;DHT22;13718;50.922;5.346;2022-11-18T09:28:12;11.50;99.90
25914;DHT22;13718;50.922;5.346;2022-11-18T09:30:37;11.60;99.90
25914;DHT22;13718;50.922;5.346;2022-11-18T09:33:03;11.60;99.90
25914;DHT22;13718;50.922;5.346;2022-11-18T09:35:29;11.70;99.90
25914;DHT22;13718;50.922;5.346;2022-11-18T09:37:54;11.80;99.90
25914;DHT22;13718;50.922;5.346;2022-11-18T09:40:20;11.90;99.90
25914;DHT22;13718;50.922;5.346;2022-11-18T09:45:59;12.20;99.90
25914;DHT22;13718;50.922;5.346;2022-11-18T09:48:27;12.30;99.90
25914;DHT22;13718;50.922;5.346;2022-11-18T09:51:12;12.50;99.90
25914;DHT22;13718;50.922;5.346;2022-11-18T09:53:40;12.50;99.90
25914;DHT22;13718;50.922;5.346;2022-11-18T09:56:14;12.60;99.90
25914;DHT22;13718;50.922;5.346;2022-11-18T09:58:41;12.60;99.90
25914;DHT22;13718;50.922;5.346;2022-11-18T10:01:17;12.60;99.90
25914;DHT22;13718;50.922;5.346;2022-11-18T10:03:43;12.50;99.90
25914;DHT22;13718;50.922;5.346;2022-11-18T10:06:17;12.70;99.90
25914;DHT22;13718;50.922;5.346;2022-11-18T10:09:08;12.90;99.90
25914;DHT22;13718;50.922;5.346;2022-11-18T10:12:01;12.70;99.90
25914;DHT22;13718;50.922;5.346;2022-11-18T10:14:49;12.60;99.90
25914;DHT22;13718;50.922;5.346;2022-11-18T10:17:39;12.70;99.90
25914;DHT22;13718;50.922;5.346;2022-11-18T10:25:14;12.80;99.90
25914;DHT22;13718;50.922;5.346;2022-11-18T10:27:42;13.00;99.90
25914;DHT22;13718;50.922;5.346;2022-11-18T10:30:16;13.00;99.90
25914;DHT22;13718;50.922;5.346;2022-11-18T10:33:03;13.00;99.90
25914;DHT22;13718;50.922;5.346;2022-11-18T10:35:41;12.90;99.90
25914;DHT22;13718;50.922;5.346;2022-11-18T10:38:18;13.00;99.90
25914;DHT22;13718;50.922;5.346;2022-11-18T10:41:00;13.20;99.90
25914;DHT22;13718;50.922;5.346;2022-11-18T10:46:34;13.00;99.90
25914;DHT22;13718;50.922;5.346;2022-11-18T10:51:36;13.10;99.90
25914;DHT22;13718;50.922;5.346;2022-11-18T10:54:18;13.00;99.90
25914;DHT22;13718;50.922;5.346;2022-11-18T10:59:35;12.90;99.90
25914;DHT22;13718;50.922;5.346;2022-11-18T11:05:03;13.00;99.90
25914;DHT22;13718;50.922;5.346;2022-11-18T11:07:33;13.00;99.90
25914;DHT22;13718;50.922;5.346;2022-11-18T11:12:35;12.80;99.90
25914;DHT22;13718;50.922;5.346;2022-11-18T11:15:21;12.60;99.90
25914;DHT22;13718;50.922;5.346;2022-11-18T11:17:50;12.60;99.90
25914;DHT22;13718;50.922;5.346;2022-11-18T11:20:36;12.80;99.90
25914;DHT22;13718;50.922;5.346;2022-11-18T11:23:10;12.80;99.90
25914;DHT22;13718;50.922;5.346;2022-11-18T11:25:43;12.70;99.90
25914;DHT22;13718;50.922;5.346;2022-11-18T11:28:24;12.70;99.90
25914;DHT22;13718;50.922;5.346;2022-11-18T11:45:18;12.70;99.90
25914;DHT22;13718;50.922;5.346;2022-11-18T11:48:32;12.60;99.90
25914;DHT22;13718;50.922;5.346;2022-11-18T11:50:53;12.50;99.90
25914;DHT22;13718;50.922;5.346;2022-11-18T11:53:51;12.40;99.90
25914;DHT22;13718;50.922;5.346;2022-11-18T11:56:25;12.40;99.90
25914;DHT22;13718;50.922;5.346;2022-11-18T12:06:55;12.40;99.90
25914;DHT22;13718;50.922;5.346;2022-11-18T12:12:22;12.20;99.90
25914;DHT22;13718;50.922;5.346;2022-11-18T12:20:49;12.30;99.90
25914;DHT22;13718;50.922;5.346;2022-11-18T12:23:22;12.20;99.90
25914;DHT22;13718;50.922;5.346;2022-11-18T12:26:07;12.20;99.90
25914;DHT22;13718;50.922;5.346;2022-11-18T12:33:52;12.60;99.90
25914;DHT22;13718;50.922;5.346;2022-11-18T12:36:39;12.70;99.90
25914;DHT22;13718;50.922;5.346;2022-11-18T12:41:59;12.80;99.90
25914;DHT22;13718;50.922;5.346;2022-11-18T12:44:49;12.90;99.90
25914;DHT22;13718;50.922;5.346;2022-11-18T12:47:55;13.10;99.90
25914;DHT22;13718;50.922;5.346;2022-11-18T12:54:58;13.40;99.90
25914;DHT22;13718;50.922;5.346;2022-11-18T12:57:34;13.50;99.90
25914;DHT22;13718;50.922;5.346;2022-11-18T13:02:51;13.60;99.90
25914;DHT22;13718;50.922;5.346;2022-11-18T13:05:28;13.50;99.90
25914;DHT22;13718;50.922;5.346;2022-11-18T13:08:09;13.80;99.90
25914;DHT22;13718;50.922;5.346;2022-11-18T13:13:30;13.80;99.90
25914;DHT22;13718;50.922;5.346;2022-11-18T13:16:02;13.70;99.90
25914;DHT22;13718;50.922;5.346;2022-11-18T13:18:52;13.50;99.90
25914;DHT22;13718;50.922;5.346;2022-11-18T13:21:25;13.50;99.90
25914;DHT22;13718;50.922;5.346;2022-11-18T13:24:13;13.50;99.90
25914;DHT22;13718;50.922;5.346;2022-11-18T13:26:41;13.60;99.90
25914;DHT22;13718;50.922;5.346;2022-11-18T13:29:28;13.60;99.90
25914;DHT22;13718;50.922;5.346;2022-11-18T13:32:25;13.80;99.90
25914;DHT22;13718;50.922;5.346;2022-11-18T13:34:54;13.80;99.90
25914;DHT22;13718;50.922;5.346;2022-11-18T13:37:26;13.80;99.90
25914;DHT22;13718;50.922;5.346;2022-11-18T13:39:53;13.80;99.90
25914;DHT22;13718;50.922;5.346;2022-11-18T13:42:29;13.80;99.90
25914;DHT22;13718;50.922;5.346;2022-11-18T13:44:57;13.80;99.90
25914;DHT22;13718;50.922;5.346;2022-11-18T13:52:43;13.70;99.90
25914;DHT22;13718;50.922;5.346;2022-11-18T13:55:50;13.70;99.90
25914;DHT22;13718;50.922;5.346;2022-11-18T14:01:14;13.60;99.90
25914;DHT22;13718;50.922;5.346;2022-11-18T14:06:10;13.60;99.90
25914;DHT22;13718;50.922;5.346;2022-11-18T14:08:38;13.70;99.90
25914;DHT22;13718;50.922;5.346;2022-11-18T14:11:04;13.80;99.90
25914;DHT22;13718;50.922;5.346;2022-11-18T14:13:35;13.60;99.90
25914;DHT22;13718;50.922;5.346;2022-11-18T14:18:51;13.50;99.90
25914;DHT22;13718;50.922;5.346;2022-11-18T14:21:31;13.50;99.90
25914;DHT22;13718;50.922;5.346;2022-11-18T14:23:58;13.40;99.90
25914;DHT22;13718;50.922;5.346;2022-11-18T14:26:35;13.30;99.90
25914;DHT22;13718;50.922;5.346;2022-11-18T14:29:21;13.30;99.90
25914;DHT22;13718;50.922;5.346;2022-11-18T14:34:28;13.10;99.90
25914;DHT22;13718;50.922;5.346;2022-11-18T14:36:55;13.10;99.90
25914;DHT22;13718;50.922;5.346;2022-11-18T14:39:26;13.10;99.90
25914;DHT22;13718;50.922;5.346;2022-11-18T14:41:53;13.00;99.90
25914;DHT22;13718;50.922;5.346;2022-11-18T14:44:19;13.10;99.90
25914;DHT22;13718;50.922;5.346;2022-11-18T14:46:48;12.90;99.90
25914;DHT22;13718;50.922;5.346;2022-11-18T14:49:21;12.70;99.90
25914;DHT22;13718;50.922;5.346;2022-11-18T14:51:48;12.60;99.90
25914;DHT22;13718;50.922;5.346;2022-11-18T14:54:15;12.50;99.90
25914;DHT22;13718;50.922;5.346;2022-11-18T14:56:41;12.60;99.90
25914;DHT22;13718;50.922;5.346;2022-11-18T14:59:12;12.40;99.90
25914;DHT22;13718;50.922;5.346;2022-11-18T15:01:38;12.30;99.90
25914;DHT22;13718;50.922;5.346;2022-11-18T15:04:04;12.10;99.90
25914;DHT22;13718;50.922;5.346;2022-11-18T15:06:30;12.10;99.90
25914;DHT22;13718;50.922;5.346;2022-11-18T15:08:55;12.10;99.90
25914;DHT22;13718;50.922;5.346;2022-11-18T15:11:21;11.90;99.90
25914;DHT22;13718;50.922;5.346;2022-11-18T15:13:47;11.90;99.90
25914;DHT22;13718;50.922;5.346;2022-11-18T15:16:25;11.80;99.90
25914;DHT22;13718;50.922;5.346;2022-11-18T15:18:52;11.80;99.90
25914;DHT22;13718;50.922;5.346;2022-11-18T15:21:19;11.70;99.90
25914;DHT22;13718;50.922;5.346;2022-11-18T15:23:45;11.60;99.90
25914;DHT22;13718;50.922;5.346;2022-11-18T15:26:14;11.50;99.90
25914;DHT22;13718;50.922;5.346;2022-11-18T15:28:41;11.50;99.90
25914;DHT22;13718;50.922;5.346;2022-11-18T15:31:06;11.40;99.90
25914;DHT22;13718;50.922;5.346;2022-11-18T15:33:32;11.30;99.90
25914;DHT22;13718;50.922;5.346;2022-11-18T15:35:58;11.30;99.90
25914;DHT22;13718;50.922;5.346;2022-11-18T15:38:23;11.30;99.90
25914;DHT22;13718;50.922;5.346;2022-11-18T15:40:49;11.20;99.90
25914;DHT22;13718;50.922;5.346;2022-11-18T15:43:14;11.20;99.90
25914;DHT22;13718;50.922;5.346;2022-11-18T15:45:42;11.20;99.90
25914;DHT22;13718;50.922;5.346;2022-11-18T15:48:07;11.20;99.90
25914;DHT22;13718;50.922;5.346;2022-11-18T15:50:33;11.10;99.90
25914;DHT22;13718;50.922;5.346;2022-11-18T15:52:59;11.10;99.90
25914;DHT22;13718;50.922;5.346;2022-11-18T15:55:24;11.00;99.90
25914;DHT22;13718;50.922;5.346;2022-11-18T15:57:50;10.90;99.90
25914;DHT22;13718;50.922;5.346;2022-11-18T16:00:15;10.70;99.90
25914;DHT22;13718;50.922;5.346;2022-11-18T16:02:41;10.70;99.90
25914;DHT22;13718;50.922;5.346;2022-11-18T16:05:07;10.70;99.90
25914;DHT22;13718;50.922;5.346;2022-11-18T16:07:33;10.70;99.90
25914;DHT22;13718;50.922;5.346;2022-11-18T16:09:58;10.90;99.90
25914;DHT22;13718;50.922;5.346;2022-11-18T16:12:42;11.10;99.90
25914;DHT22;13718;50.922;5.346;2022-11-18T16:15:11;11.00;99.90
25914;DHT22;13718;50.922;5.346;2022-11-18T16:18:04;10.90;99.90
25914;DHT22;13718;50.922;5.346;2022-11-18T16:20:29;10.90;99.90
25914;DHT22;13718;50.922;5.346;2022-11-18T16:22:55;10.90;99.90
25914;DHT22;13718;50.922;5.346;2022-11-18T16:25:22;10.80;99.90
25914;DHT22;13718;50.922;5.346;2022-11-18T16:27:48;10.70;99.90
25914;DHT22;13718;50.922;5.346;2022-11-18T16:30:13;10.70;99.90
25914;DHT22;13718;50.922;5.346;2022-11-18T16:32:58;10.70;99.90
25914;DHT22;13718;50.922;5.346;2022-11-18T16:35:24;10.70;99.90
25914;DHT22;13718;50.922;5.346;2022-11-18T16:37:50;10.70;99.90
25914;DHT22;13718;50.922;5.346;2022-11-18T16:40:16;10.70;99.90
25914;DHT22;13718;50.922;5.346;2022-11-18T16:42:42;10.60;99.90
25914;DHT22;13718;50.922;5.346;2022-11-18T16:45:08;10.70;99.90
25914;DHT22;13718;50.922;5.346;2022-11-18T16:47:34;10.70;99.90
25914;DHT22;13718;50.922;5.346;2022-11-18T16:50:01;10.60;99.90
25914;DHT22;13718;50.922;5.346;2022-11-18T16:52:27;10.50;99.90
25914;DHT22;13718;50.922;5.346;2022-11-18T16:54:52;10.60;99.90
25914;DHT22;13718;50.922;5.346;2022-11-18T16:57:18;10.50;99.90
25914;DHT22;13718;50.922;5.346;2022-11-18T16:59:44;10.50;99.90
25914;DHT22;13718;50.922;5.346;2022-11-18T17:02:13;10.50;99.90
25914;DHT22;13718;50.922;5.346;2022-11-18T17:04:39;10.40;99.90
25914;DHT22;13718;50.922;5.346;2022-11-18T17:07:05;10.40;99.90
25914;DHT22;13718;50.922;5.346;2022-11-18T17:09:31;10.40;99.90
25914;DHT22;13718;50.922;5.346;2022-11-18T17:11:57;10.30;99.90
25914;DHT22;13718;50.922;5.346;2022-11-18T17:14:23;10.30;99.90
25914;DHT22;13718;50.922;5.346;2022-11-18T17:16:50;10.30;99.90
25914;DHT22;13718;50.922;5.346;2022-11-18T17:19:18;10.20;99.90
25914;DHT22;13718;50.922;5.346;2022-11-18T17:21:44;10.20;99.90
25914;DHT22;13718;50.922;5.346;2022-11-18T17:24:12;10.20;99.90
25914;DHT22;13718;50.922;5.346;2022-11-18T17:26:38;10.20;99.90
25914;DHT22;13718;50.922;5.346;2022-11-18T17:29:04;10.30;99.90
25914;DHT22;13718;50.922;5.346;2022-11-18T17:31:30;10.40;99.90
25914;DHT22;13718;50.922;5.346;2022-11-18T17:33:56;10.30;99.90
25914;DHT22;13718;50.922;5.346;2022-11-18T17:36:24;10.30;99.90
25914;DHT22;13718;50.922;5.346;2022-11-18T17:38:52;10.30;99.90
25914;DHT22;13718;50.922;5.346;2022-11-18T17:41:21;10.30;99.90
25914;DHT22;13718;50.922;5.346;2022-11-18T17:44:07;10.30;99.90
25914;DHT22;13718;50.922;5.346;2022-11-18T17:46:34;10.20;99.90
25914;DHT22;13718;50.922;5.346;2022-11-18T17:49:01;10.30;99.90
25914;DHT22;13718;50.922;5.346;2022-11-18T17:51:29;10.30;99.90